createdAt,value
2023-02-06T00:02:39.091Z,103485.38
2023-02-06T00:05:25.884Z,103488.72
2023-02-06T00:08:12.709Z,103468.66
2023-02-06T00:11:03.035Z,103492.84
2023-02-06T00:13:50.089Z,103503.41
2023-02-06T00:16:36.832Z,103500.88
2023-02-06T00:19:23.597Z,103492.97
2023-02-06T00:22:12.469Z,103488.91
2023-02-06T00:24:59.626Z,103497.44
2023-02-06T00:27:46.396Z,103499.09
2023-02-06T00:30:33.159Z,103493.50
2023-02-06T00:33:23.011Z,103490.91
2023-02-06T00:36:10.215Z,103489.00
2023-02-06T00:38:57.002Z,103486.25
2023-02-06T00:41:43.907Z,103479.53
2023-02-06T00:44:30.675Z,103483.25
2023-02-06T00:47:17.436Z,103481.19
2023-02-06T00:50:04.765Z,103478.84
2023-02-06T00:52:51.486Z,103490.13
2023-02-06T00:55:38.295Z,103485.16
2023-02-06T00:58:25.030Z,103470.78
2023-02-06T01:01:11.846Z,103463.25
2023-02-06T01:03:58.563Z,103483.50
2023-02-06T01:06:45.383Z,103485.28
2023-02-06T01:09:32.162Z,103479.72
2023-02-06T01:12:18.940Z,103479.25
2023-02-06T01:15:08.904Z,103490.72
2023-02-06T01:17:55.687Z,103497.25
2023-02-06T01:20:42.394Z,103499.38
2023-02-06T01:23:29.111Z,103495.00
2023-02-06T01:26:17.474Z,103489.19
2023-02-06T01:29:04.679Z,103484.78
2023-02-06T01:31:51.478Z,103486.81
2023-02-06T01:34:38.214Z,103487.84
2023-02-06T01:37:24.949Z,103488.84
2023-02-06T01:40:14.842Z,103482.66
2023-02-06T01:43:02.025Z,103475.56
2023-02-06T01:45:50.074Z,103484.38
2023-02-06T01:48:48.509Z,103486.03
2023-02-06T01:51:35.549Z,103494.22
2023-02-06T01:54:22.694Z,103497.13
2023-02-06T01:57:11.788Z,103501.03
2023-02-06T02:00:02.887Z,103495.69
2023-02-06T02:02:50.229Z,103504.75
2023-02-06T02:05:40.147Z,103500.06
2023-02-06T02:08:39.895Z,103498.97
2023-02-06T02:11:36.280Z,103488.84
2023-02-06T02:14:23.156Z,103477.44
2023-02-06T02:17:31.226Z,103492.84
2023-02-06T02:20:31.246Z,103493.84
2023-02-06T02:23:45.073Z,103481.50
2023-02-06T02:26:50.994Z,103481.78
2023-02-06T02:29:49.003Z,103466.22
2023-02-06T02:33:11.897Z,103473.69
2023-02-06T02:36:07.855Z,103476.84
2023-02-06T02:39:09.019Z,103473.28
2023-02-06T02:42:11.253Z,103466.03
2023-02-06T02:45:24.041Z,103473.53
2023-02-06T02:48:28.216Z,103467.59
2023-02-06T02:51:16.460Z,103466.88
2023-02-06T02:54:03.778Z,103458.41
2023-02-06T02:56:50.585Z,103465.06
2023-02-06T02:59:48.676Z,103472.38
2023-02-06T03:02:38.869Z,103463.13
2023-02-06T03:05:26.823Z,103477.00
2023-02-06T03:08:32.436Z,103479.16
2023-02-06T03:11:20.957Z,103479.16
2023-02-06T03:14:19.087Z,103476.28
2023-02-06T03:17:10.826Z,103486.22
2023-02-06T03:19:59.580Z,103487.44
2023-02-06T03:22:50.048Z,103488.47
2023-02-06T03:25:41.779Z,103496.53
2023-02-06T03:28:35.278Z,103501.97
2023-02-06T03:31:30.843Z,103501.69
2023-02-06T03:34:36.938Z,103491.53
2023-02-06T03:37:25.115Z,103505.72
2023-02-06T03:40:13.394Z,103503.81
2023-02-06T03:43:04.065Z,103499.34
2023-02-06T03:45:59.855Z,103491.41
2023-02-06T03:48:50.662Z,103498.63
2023-02-06T03:51:44.409Z,103481.66
2023-02-06T03:54:33.617Z,103492.22
2023-02-06T03:57:22.451Z,103495.81
2023-02-06T04:00:10.061Z,103499.28
2023-02-06T04:02:58.627Z,103504.13
2023-02-06T04:05:45.623Z,103501.50
2023-02-06T04:08:32.368Z,103501.66
2023-02-06T04:11:19.135Z,103511.44
2023-02-06T04:14:05.856Z,103502.59
2023-02-06T04:16:52.584Z,103504.66
2023-02-06T04:19:40.096Z,103508.91
2023-02-06T04:22:26.878Z,103503.78
2023-02-06T04:25:13.677Z,103495.91
2023-02-06T04:28:00.667Z,103495.50
2023-02-06T04:30:47.939Z,103484.94
2023-02-06T04:33:34.723Z,103501.84
2023-02-06T04:36:21.473Z,103498.38
2023-02-06T04:39:08.647Z,103509.16
2023-02-06T04:41:55.676Z,103483.03
2023-02-06T04:44:42.444Z,103493.16
2023-02-06T04:47:29.239Z,103495.56
2023-02-06T04:50:17.504Z,103496.75
2023-02-06T04:53:04.215Z,103497.78
2023-02-06T04:55:50.960Z,103508.78
2023-02-06T04:58:38.919Z,103500.50
2023-02-06T05:01:25.928Z,103516.91
2023-02-06T05:04:12.739Z,103518.03
2023-02-06T05:06:59.564Z,103500.19
2023-02-06T05:09:46.463Z,103532.50
2023-02-06T05:12:33.233Z,103528.91
2023-02-06T05:15:19.954Z,103543.53
2023-02-06T05:18:06.931Z,103539.38
2023-02-06T05:20:53.739Z,103528.69
2023-02-06T05:23:40.762Z,103532.38
2023-02-06T05:26:27.540Z,103527.59
2023-02-06T05:29:14.347Z,103517.00
2023-02-06T05:32:01.092Z,103502.50
2023-02-06T05:34:47.835Z,103503.25
2023-02-06T05:37:34.709Z,103507.44
2023-02-06T05:40:21.562Z,103492.63
2023-02-06T05:43:08.472Z,103512.50
2023-02-06T05:45:55.270Z,103508.63
2023-02-06T05:48:42.219Z,103504.16
2023-02-06T05:51:29.032Z,103499.00
2023-02-06T05:54:18.320Z,103505.31
2023-02-06T05:57:05.091Z,103501.16
2023-02-06T05:59:51.863Z,103514.84
2023-02-06T06:02:39.300Z,103512.94
2023-02-06T06:05:26.091Z,103501.13
2023-02-06T06:08:12.968Z,103501.84
2023-02-06T06:11:02.071Z,103498.09
2023-02-06T06:13:49.311Z,103497.25
2023-02-06T06:16:36.057Z,103490.97
2023-02-06T06:19:22.842Z,103502.06
2023-02-06T06:22:11.342Z,103490.28
2023-02-06T06:24:58.202Z,103498.09
2023-02-06T06:27:45.022Z,103498.56
2023-02-06T06:30:32.584Z,103499.19
2023-02-06T06:33:20.549Z,103488.56
2023-02-06T06:36:09.166Z,103491.31
2023-02-06T06:38:56.061Z,103502.97
2023-02-06T06:41:42.795Z,103502.28
2023-02-06T06:44:29.810Z,103511.38
2023-02-06T06:47:16.639Z,103506.19
2023-02-06T06:50:03.742Z,103504.25
2023-02-06T06:52:50.479Z,103502.59
2023-02-06T06:55:37.541Z,103498.03
2023-02-06T06:58:24.427Z,103503.78
2023-02-06T07:01:11.267Z,103499.34
2023-02-06T07:03:59.194Z,103498.84
2023-02-06T07:06:46.035Z,103509.41
2023-02-06T07:09:33.203Z,103509.34
2023-02-06T07:12:20.063Z,103500.16
2023-02-06T07:15:07.256Z,103497.53
2023-02-06T07:17:54.127Z,103492.69
2023-02-06T07:20:44.709Z,103489.03
2023-02-06T07:23:31.631Z,103488.44
2023-02-06T07:26:18.420Z,103491.63
2023-02-06T07:29:05.244Z,103495.97
2023-02-06T07:31:52.131Z,103500.84
2023-02-06T07:34:40.489Z,103499.84
2023-02-06T07:37:27.241Z,103501.44
2023-02-06T07:40:13.996Z,103509.78
2023-02-06T07:43:00.707Z,103492.31
2023-02-06T07:45:47.529Z,103505.63
2023-02-06T07:48:34.340Z,103515.44
2023-02-06T07:51:21.234Z,103509.78
2023-02-06T07:54:08.501Z,103494.09
2023-02-06T07:56:55.269Z,103508.56
2023-02-06T07:59:42.120Z,103501.41
2023-02-06T08:02:28.868Z,103507.47
2023-02-06T08:05:15.627Z,103501.25
2023-02-06T08:08:02.577Z,103494.03
2023-02-06T08:10:49.501Z,103504.47
2023-02-06T08:13:37.110Z,103505.91
2023-02-06T08:16:24.650Z,103497.19
2023-02-06T08:19:12.388Z,103504.97
2023-02-06T08:21:59.138Z,103503.22
2023-02-06T08:24:45.915Z,103478.34
2023-02-06T08:27:32.730Z,103504.50
2023-02-06T08:30:19.748Z,103504.75
2023-02-06T08:33:06.503Z,103503.72
2023-02-06T08:35:54.079Z,103500.91
2023-02-06T08:38:40.936Z,103510.50
2023-02-06T08:41:30.606Z,103514.59
2023-02-06T08:44:18.589Z,103512.56
2023-02-06T08:47:10.512Z,103508.63
2023-02-06T08:49:57.477Z,103499.72
2023-02-06T08:52:44.313Z,103499.94
2023-02-06T08:55:31.063Z,103502.78
2023-02-06T08:58:17.859Z,103509.75
2023-02-06T09:00:44.532Z,103510.59
2023-02-06T09:03:11.002Z,103508.88
2023-02-06T09:05:37.729Z,103517.84
2023-02-06T09:08:04.480Z,103507.53
2023-02-06T09:10:49.265Z,103513.25
2023-02-06T09:13:15.745Z,103529.13
2023-02-06T09:15:43.275Z,103525.47
2023-02-06T09:18:09.882Z,103512.50
2023-02-06T09:20:36.383Z,103514.75
2023-02-06T09:23:02.905Z,103520.69
2023-02-06T09:25:29.494Z,103512.56
2023-02-06T09:27:57.109Z,103522.91
2023-02-06T09:30:23.712Z,103528.72
2023-02-06T09:32:50.217Z,103516.50
2023-02-06T09:35:16.723Z,103514.44
2023-02-06T09:37:43.212Z,103512.09
2023-02-06T09:40:12.603Z,103505.13
2023-02-06T09:42:40.614Z,103518.50
2023-02-06T09:45:09.314Z,103508.53
2023-02-06T09:47:41.125Z,103503.59
2023-02-06T09:50:47.961Z,103505.19
2023-02-06T09:53:26.037Z,103502.41
2023-02-06T09:56:02.081Z,103505.94
2023-02-06T09:58:44.388Z,103504.59
2023-02-06T10:01:34.381Z,103505.00
2023-02-06T10:04:27.420Z,103504.59
2023-02-06T10:07:04.099Z,103497.28
2023-02-06T10:09:42.407Z,103500.72
2023-02-06T10:12:19.592Z,103506.31
2023-02-06T10:15:04.182Z,103499.19
2023-02-06T10:17:49.110Z,103498.25
2023-02-06T10:20:28.528Z,103496.16
2023-02-06T10:23:18.264Z,103492.50
2023-02-06T10:26:16.985Z,103495.19
2023-02-06T10:28:59.833Z,103493.97
2023-02-06T10:31:47.535Z,103496.88
2023-02-06T10:34:28.276Z,103490.56
2023-02-06T10:37:15.444Z,103491.75
2023-02-06T10:39:53.027Z,103485.78
2023-02-06T10:42:28.685Z,103486.31
2023-02-06T10:45:18.910Z,103463.38
2023-02-06T10:47:55.906Z,103476.63
2023-02-06T10:50:55.107Z,103473.31
2023-02-06T10:53:29.877Z,103466.22
2023-02-06T10:56:04.763Z,103460.44
2023-02-06T10:58:35.610Z,103450.63
2023-02-06T11:01:02.479Z,103455.66
2023-02-06T11:03:43.007Z,103433.69
2023-02-06T11:06:13.174Z,103421.41
2023-02-06T11:08:58.574Z,103431.22
2023-02-06T11:11:29.667Z,103424.78
2023-02-06T11:14:17.401Z,103424.97
2023-02-06T11:16:44.788Z,103426.59
2023-02-06T11:19:25.281Z,103422.53
2023-02-06T11:22:08.699Z,103423.44
2023-02-06T11:24:36.908Z,103426.28
2023-02-06T11:27:18.818Z,103421.50
2023-02-06T11:29:46.965Z,103413.97
2023-02-06T11:32:29.535Z,103410.69
2023-02-06T11:35:06.271Z,103409.28
2023-02-06T11:37:38.408Z,103406.88
2023-02-06T11:40:19.032Z,103409.94
2023-02-06T11:42:47.471Z,103402.56
2023-02-06T11:45:33.932Z,103395.38
2023-02-06T11:48:01.035Z,103388.78
2023-02-06T11:50:35.903Z,103392.31
2023-02-06T11:53:17.206Z,103385.84
2023-02-06T11:55:46.573Z,103381.81
2023-02-06T11:58:12.939Z,103386.72
2023-02-06T12:00:42.045Z,103388.03
2023-02-06T12:03:32.383Z,103377.97
2023-02-06T12:06:05.109Z,103374.34
2023-02-06T12:08:44.348Z,103384.19
2023-02-06T12:11:24.663Z,103384.72
2023-02-06T12:14:07.308Z,103381.72
2023-02-06T12:16:38.431Z,103383.19
2023-02-06T12:19:12.186Z,103371.84
2023-02-06T12:21:41.261Z,103381.19
2023-02-06T12:24:40.988Z,103375.56
2023-02-06T12:27:22.218Z,103378.53
2023-02-06T12:30:04.256Z,103384.28
2023-02-06T12:32:38.577Z,103385.25
2023-02-06T12:35:32.104Z,103387.16
2023-02-06T12:38:07.202Z,103381.88
2023-02-06T12:40:38.186Z,103384.19
2023-02-06T12:43:16.857Z,103373.25
2023-02-06T12:45:55.504Z,103367.00
2023-02-06T12:48:47.624Z,103361.19
2023-02-06T12:51:40.291Z,103358.00
2023-02-06T12:54:19.157Z,103357.56
2023-02-06T12:57:13.863Z,103356.06
2023-02-06T12:59:57.574Z,103351.13
2023-02-06T13:03:01.308Z,103351.75
2023-02-06T13:06:18.554Z,103340.22
2023-02-06T13:08:56.589Z,103350.59
2023-02-06T13:11:29.937Z,103340.91
2023-02-06T13:14:23.840Z,103342.06
2023-02-06T13:17:07.779Z,103339.38
2023-02-06T13:19:37.221Z,103342.34
2023-02-06T13:22:09.777Z,103326.50
2023-02-06T13:24:41.419Z,103341.00
2023-02-06T13:27:07.838Z,103330.72
2023-02-06T13:29:37.414Z,103342.72
2023-02-06T13:32:14.930Z,103331.19
2023-02-06T13:34:44.411Z,103336.47
2023-02-06T13:37:20.900Z,103327.56
2023-02-06T13:39:49.026Z,103318.94
2023-02-06T13:42:46.398Z,103315.09
2023-02-06T13:45:21.805Z,103317.41
2023-02-06T13:48:07.220Z,103319.22
2023-02-06T13:50:58.270Z,103325.84
2023-02-06T13:53:52.806Z,103319.31
2023-02-06T13:56:56.958Z,103322.47
2023-02-06T14:00:01.578Z,103329.09
2023-02-06T14:02:41.677Z,103321.41
2023-02-06T14:05:22.010Z,103322.28
2023-02-06T14:08:15.370Z,103318.81
2023-02-06T14:10:50.694Z,103314.31
2023-02-06T14:13:28.728Z,103312.41
2023-02-06T14:16:27.597Z,103321.03
2023-02-06T14:19:02.480Z,103307.31
2023-02-06T14:21:37.439Z,103321.41
2023-02-06T14:24:27.521Z,103315.84
2023-02-06T14:27:21.700Z,103306.25
2023-02-06T14:30:07.807Z,103297.63
2023-02-06T14:33:06.005Z,103307.22
2023-02-06T14:35:46.068Z,103312.28
2023-02-06T14:38:47.568Z,103307.59
2023-02-06T14:41:19.858Z,103308.16
2023-02-06T14:43:48.909Z,103305.78
2023-02-06T14:46:25.080Z,103307.13
2023-02-06T14:48:59.936Z,103301.66
2023-02-06T14:51:28.602Z,103306.25
2023-02-06T14:53:58.110Z,103298.19
2023-02-06T14:56:32.290Z,103311.44
2023-02-06T14:59:14.083Z,103298.88
2023-02-06T15:01:42.092Z,103302.41
2023-02-06T15:04:18.361Z,103301.84
2023-02-06T15:06:52.730Z,103300.31
2023-02-06T15:09:37.806Z,103300.22
2023-02-06T15:12:24.751Z,103301.94
2023-02-06T15:14:53.891Z,103308.75
2023-02-06T15:17:26.699Z,103311.91
2023-02-06T15:19:53.302Z,103302.41
2023-02-06T15:22:29.956Z,103291.78
2023-02-06T15:25:31.780Z,103296.28
2023-02-06T15:28:04.979Z,103301.66
2023-02-06T15:31:00.832Z,103309.53
2023-02-06T15:33:33.731Z,103303.94
2023-02-06T15:36:03.411Z,103301.25
2023-02-06T15:38:33.227Z,103306.75
2023-02-06T15:41:18.679Z,103295.03
2023-02-06T15:44:21.603Z,103294.34
2023-02-06T15:46:56.930Z,103295.22
2023-02-06T15:49:37.979Z,103288.13
2023-02-06T15:52:05.672Z,103285.53
2023-02-06T15:54:33.452Z,103279.19
2023-02-06T15:57:39.809Z,103281.88
2023-02-06T16:00:18.993Z,103279.09
2023-02-06T16:02:46.061Z,103281.50
2023-02-06T16:05:38.099Z,103279.56
2023-02-06T16:08:11.840Z,103273.75
2023-02-06T16:11:05.420Z,103271.91
2023-02-06T16:13:35.883Z,103265.16
2023-02-06T16:16:16.512Z,103283.13
2023-02-06T16:19:01.768Z,103273.47
2023-02-06T16:22:14.218Z,103285.03
2023-02-06T16:24:49.600Z,103285.22
2023-02-06T16:27:26.187Z,103276.13
2023-02-06T16:30:36.391Z,103280.66
2023-02-06T16:33:22.996Z,103267.88
2023-02-06T16:35:51.110Z,103270.00
2023-02-06T16:38:22.243Z,103277.28
2023-02-06T16:41:04.257Z,103277.69
2023-02-06T16:44:02.356Z,103266.34
2023-02-06T16:46:30.068Z,103272.97
2023-02-06T16:48:58.946Z,103266.34
2023-02-06T16:51:28.227Z,103271.91
2023-02-06T16:53:55.143Z,103265.00
2023-02-06T16:56:21.799Z,103268.06
2023-02-06T16:58:49.067Z,103267.97
2023-02-06T17:01:26.450Z,103270.75
2023-02-06T17:03:53.647Z,103272.28
2023-02-06T17:06:28.902Z,103277.66
2023-02-06T17:09:03.342Z,103256.94
2023-02-06T17:11:31.028Z,103265.56
2023-02-06T17:13:57.708Z,103270.09
2023-02-06T17:16:26.048Z,103274.59
2023-02-06T17:18:53.199Z,103269.41
2023-02-06T17:21:22.160Z,103268.25
2023-02-06T17:23:50.366Z,103265.66
2023-02-06T17:26:35.467Z,103251.38
2023-02-06T17:29:01.958Z,103260.19
2023-02-06T17:31:28.605Z,103260.38
2023-02-06T17:33:55.152Z,103264.22
2023-02-06T17:36:29.217Z,103269.50
2023-02-06T17:38:58.854Z,103275.25
2023-02-06T17:41:27.122Z,103280.34
2023-02-06T17:43:53.707Z,103276.13
2023-02-06T17:46:39.439Z,103281.50
2023-02-06T17:49:06.264Z,103270.94
2023-02-06T17:51:32.822Z,103262.50
2023-02-06T17:54:18.203Z,103274.59
2023-02-06T17:56:44.711Z,103276.50
2023-02-06T17:59:14.178Z,103266.13
2023-02-06T18:01:42.379Z,103271.81
2023-02-06T18:04:13.077Z,103265.19
2023-02-06T18:06:39.591Z,103260.56
2023-02-06T18:09:06.248Z,103260.09
2023-02-06T18:11:32.859Z,103265.66
2023-02-06T18:14:05.694Z,103257.50
2023-02-06T18:16:32.253Z,103260.19
2023-02-06T18:18:59.614Z,103260.00
2023-02-06T18:21:28.856Z,103260.56
2023-02-06T18:23:55.466Z,103259.41
2023-02-06T18:26:40.737Z,103268.44
2023-02-06T18:29:07.418Z,103259.91
2023-02-06T18:31:58.820Z,103259.56
2023-02-06T18:34:25.419Z,103258.41
2023-02-06T18:36:57.245Z,103259.56
2023-02-06T18:39:24.072Z,103262.59
2023-02-06T18:42:09.941Z,103260.69
2023-02-06T18:44:41.696Z,103262.69
2023-02-06T18:47:09.324Z,103279.75
2023-02-06T18:49:41.506Z,103284.25
2023-02-06T18:52:08.953Z,103269.91
2023-02-06T18:54:36.473Z,103271.31
2023-02-06T18:57:03.404Z,103283.06
2023-02-06T18:59:35.401Z,103286.81
2023-02-06T19:02:02.515Z,103287.94
2023-02-06T19:04:31.288Z,103283.38
2023-02-06T19:07:16.688Z,103263.84
2023-02-06T19:09:43.322Z,103279.28
2023-02-06T19:12:09.992Z,103281.03
2023-02-06T19:14:39.909Z,103282.06
2023-02-06T19:17:12.458Z,103282.06
2023-02-06T19:19:41.374Z,103280.69
2023-02-06T19:22:11.194Z,103271.50
2023-02-06T19:24:44.452Z,103280.41
2023-02-06T19:27:11.488Z,103275.16
2023-02-06T19:29:43.657Z,103273.06
2023-02-06T19:32:15.828Z,103279.84
2023-02-06T19:34:44.024Z,103267.72
2023-02-06T19:37:12.277Z,103279.31
2023-02-06T19:39:44.383Z,103277.75
2023-02-06T19:42:12.714Z,103288.31
2023-02-06T19:44:39.409Z,103283.72
2023-02-06T19:47:06.838Z,103290.56
2023-02-06T19:49:33.605Z,103289.78
2023-02-06T19:52:06.275Z,103287.38
2023-02-06T19:54:32.813Z,103289.88
2023-02-06T19:57:00.565Z,103292.97
2023-02-06T19:59:29.332Z,103308.72
2023-02-06T20:02:15.706Z,103308.81
2023-02-06T20:05:20.138Z,103305.41
2023-02-06T20:07:46.635Z,103306.38
2023-02-06T20:10:13.122Z,103308.72
2023-02-06T20:12:43.215Z,103305.25
2023-02-06T20:15:14.092Z,103314.06
2023-02-06T20:17:58.935Z,103313.44
2023-02-06T20:20:25.426Z,103320.66
2023-02-06T20:22:52.018Z,103329.44
2023-02-06T20:25:18.687Z,103315.19
2023-02-06T20:27:46.432Z,103318.00
2023-02-06T20:30:32.302Z,103316.81
2023-02-06T20:33:17.480Z,103312.25
2023-02-06T20:36:23.676Z,103311.03
2023-02-06T20:38:58.438Z,103300.16
2023-02-06T20:41:30.921Z,103312.41
2023-02-06T20:44:05.847Z,103308.25
2023-02-06T20:46:36.436Z,103317.16
2023-02-06T20:49:25.008Z,103313.94
2023-02-06T20:51:52.184Z,103316.28
2023-02-06T20:54:20.492Z,103318.19
2023-02-06T20:56:47.202Z,103323.69
2023-02-06T20:59:15.881Z,103325.38
2023-02-06T21:02:01.023Z,103312.75
2023-02-06T21:04:34.193Z,103312.06
2023-02-06T21:07:20.580Z,103309.22
2023-02-06T21:09:47.690Z,103303.97
2023-02-06T21:12:15.316Z,103301.53
2023-02-06T21:14:53.277Z,103303.50
2023-02-06T21:17:38.301Z,103297.19
2023-02-06T21:20:06.307Z,103296.66
2023-02-06T21:22:33.528Z,103292.25
2023-02-06T21:25:00.252Z,103296.66
2023-02-06T21:27:28.997Z,103292.25
2023-02-06T21:29:55.717Z,103301.06
2023-02-06T21:32:22.286Z,103296.19
2023-02-06T21:34:48.971Z,103296.66
2023-02-06T21:37:15.725Z,103284.63
2023-02-06T21:39:42.666Z,103291.16
2023-02-06T21:42:10.484Z,103284.84
2023-02-06T21:44:37.853Z,103292.97
2023-02-06T21:47:04.884Z,103297.59
2023-02-06T21:49:31.981Z,103307.19
2023-02-06T21:51:59.278Z,103303.25
2023-02-06T21:54:26.119Z,103305.59
2023-02-06T21:56:53.471Z,103296.00
2023-02-06T21:59:20.008Z,103304.03
2023-02-06T22:01:46.587Z,103294.97
2023-02-06T22:04:13.248Z,103295.88
2023-02-06T22:06:40.162Z,103304.75
2023-02-06T22:09:09.135Z,103312.94
2023-02-06T22:11:38.211Z,103308.75
2023-02-06T22:14:16.397Z,103295.13
2023-02-06T22:16:43.181Z,103308.25
2023-02-06T22:19:28.385Z,103298.53
2023-02-06T22:22:13.573Z,103301.50
2023-02-06T22:24:58.696Z,103301.41
2023-02-06T22:27:25.571Z,103296.22
2023-02-06T22:29:52.304Z,103285.13
2023-02-06T22:32:18.792Z,103302.75
2023-02-06T22:34:46.212Z,103292.34
2023-02-06T22:37:12.743Z,103290.63
2023-02-06T22:39:40.892Z,103289.03
2023-02-06T22:42:07.416Z,103292.81
2023-02-06T22:44:34.967Z,103298.78
2023-02-06T22:47:20.147Z,103290.28
2023-02-06T22:50:05.790Z,103286.13
2023-02-06T22:53:09.790Z,103297.16
2023-02-06T22:56:25.303Z,103295.41
2023-02-06T22:59:25.017Z,103283.06
2023-02-06T23:02:00.314Z,103268.94
2023-02-06T23:04:42.142Z,103272.38
2023-02-06T23:07:27.057Z,103282.50
2023-02-06T23:09:59.887Z,103269.78
2023-02-06T23:12:45.256Z,103290.59
2023-02-06T23:15:13.695Z,103292.25
2023-02-06T23:17:58.797Z,103278.41
2023-02-06T23:20:41.767Z,103287.41
2023-02-06T23:23:27.673Z,103302.59
2023-02-06T23:25:54.790Z,103290.88
2023-02-06T23:28:22.965Z,103305.00
2023-02-06T23:30:51.085Z,103313.09
2023-02-06T23:33:18.158Z,103304.78
2023-02-06T23:35:44.850Z,103285.47
2023-02-06T23:38:11.826Z,103301.91
2023-02-06T23:40:39.307Z,103297.59
2023-02-06T23:43:06.472Z,103296.38
2023-02-06T23:45:33.302Z,103308.53
2023-02-06T23:47:59.983Z,103306.53
2023-02-06T23:50:27.130Z,103319.81
2023-02-06T23:52:53.885Z,103322.84
2023-02-06T23:55:20.912Z,103315.91
2023-02-06T23:57:47.527Z,103322.53
